sensor_id;sensor_type;location;lat;lon;timestamp;P1;durP1;ratioP1;P2;durP2;ratioP2
64011;SDS011;50211;52.768;12.124;2022-10-31T00:01:25;2.13;;;1.80;;
64011;SDS011;50211;52.768;12.124;2022-10-31T00:03:55;2.95;;;1.80;;
64011;SDS011;50211;52.768;12.124;2022-10-31T00:06:21;2.13;;;1.77;;
64011;SDS011;50211;52.768;12.124;2022-10-31T00:08:49;1.80;;;1.70;;
64011;SDS011;50211;52.768;12.124;2022-10-31T00:11:24;1.60;;;1.50;;
64011;SDS011;50211;52.768;12.124;2022-10-31T00:13:50;6.60;;;2.65;;
64011;SDS011;50211;52.768;12.124;2022-10-31T00:16:17;3.03;;;2.70;;
64011;SDS011;50211;52.768;12.124;2022-10-31T00:18:47;4.70;;;2.30;;
64011;SDS011;50211;52.768;12.124;2022-10-31T00:21:14;2.57;;;2.00;;
64011;SDS011;50211;52.768;12.124;2022-10-31T00:23:39;2.20;;;1.80;;
64011;SDS011;50211;52.768;12.124;2022-10-31T00:26:05;2.80;;;2.30;;
64011;SDS011;50211;52.768;12.124;2022-10-31T00:28:31;2.57;;;2.30;;
64011;SDS011;50211;52.768;12.124;2022-10-31T00:31:00;2.20;;;2.00;;
64011;SDS011;50211;52.768;12.124;2022-10-31T00:33:27;2.45;;;1.80;;
64011;SDS011;50211;52.768;12.124;2022-10-31T00:35:53;1.70;;;1.43;;
64011;SDS011;50211;52.768;12.124;2022-10-31T00:38:18;2.53;;;2.17;;
64011;SDS011;50211;52.768;12.124;2022-10-31T00:40:44;2.23;;;2.03;;
64011;SDS011;50211;52.768;12.124;2022-10-31T00:43:09;2.20;;;2.00;;
64011;SDS011;50211;52.768;12.124;2022-10-31T00:45:35;2.30;;;2.10;;
64011;SDS011;50211;52.768;12.124;2022-10-31T00:48:00;2.77;;;2.53;;
64011;SDS011;50211;52.768;12.124;2022-10-31T00:50:25;3.47;;;2.80;;
64011;SDS011;50211;52.768;12.124;2022-10-31T00:52:51;3.22;;;2.60;;
64011;SDS011;50211;52.768;12.124;2022-10-31T00:55:16;2.43;;;2.30;;
64011;SDS011;50211;52.768;12.124;2022-10-31T00:57:42;2.57;;;2.37;;
64011;SDS011;50211;52.768;12.124;2022-10-31T01:00:08;2.72;;;2.47;;
64011;SDS011;50211;52.768;12.124;2022-10-31T01:02:35;2.60;;;2.40;;
64011;SDS011;50211;52.768;12.124;2022-10-31T01:05:01;5.50;;;2.95;;
64011;SDS011;50211;52.768;12.124;2022-10-31T01:07:26;3.80;;;2.83;;
64011;SDS011;50211;52.768;12.124;2022-10-31T01:09:52;3.92;;;3.00;;
64011;SDS011;50211;52.768;12.124;2022-10-31T01:12:17;4.17;;;2.80;;
64011;SDS011;50211;52.768;12.124;2022-10-31T01:14:46;5.63;;;4.17;;
64011;SDS011;50211;52.768;12.124;2022-10-31T01:17:12;4.10;;;3.55;;
64011;SDS011;50211;52.768;12.124;2022-10-31T01:19:38;5.53;;;4.07;;
64011;SDS011;50211;52.768;12.124;2022-10-31T01:22:04;7.37;;;4.10;;
64011;SDS011;50211;52.768;12.124;2022-10-31T01:24:29;4.75;;;3.10;;
64011;SDS011;50211;52.768;12.124;2022-10-31T01:26:55;4.93;;;3.10;;
64011;SDS011;50211;52.768;12.124;2022-10-31T01:29:20;6.03;;;3.05;;
64011;SDS011;50211;52.768;12.124;2022-10-31T01:31:46;4.70;;;2.85;;
64011;SDS011;50211;52.768;12.124;2022-10-31T01:34:15;3.50;;;2.40;;
64011;SDS011;50211;52.768;12.124;2022-10-31T01:36:41;3.85;;;2.80;;
64011;SDS011;50211;52.768;12.124;2022-10-31T01:39:10;3.03;;;2.40;;
64011;SDS011;50211;52.768;12.124;2022-10-31T01:41:39;4.63;;;2.87;;
64011;SDS011;50211;52.768;12.124;2022-10-31T01:46:41;5.05;;;2.92;;
64011;SDS011;50211;52.768;12.124;2022-10-31T01:49:23;10.83;;;4.00;;
64011;SDS011;50211;52.768;12.124;2022-10-31T01:52:00;3.93;;;3.33;;
64011;SDS011;50211;52.768;12.124;2022-10-31T01:54:36;4.33;;;3.63;;
64011;SDS011;50211;52.768;12.124;2022-10-31T01:57:05;5.83;;;3.50;;
64011;SDS011;50211;52.768;12.124;2022-10-31T01:59:34;5.45;;;3.30;;
64011;SDS011;50211;52.768;12.124;2022-10-31T02:02:05;6.53;;;3.80;;
64011;SDS011;50211;52.768;12.124;2022-10-31T02:04:31;6.17;;;3.50;;
64011;SDS011;50211;52.768;12.124;2022-10-31T02:07:03;8.37;;;3.83;;
64011;SDS011;50211;52.768;12.124;2022-10-31T02:09:35;3.42;;;3.13;;
64011;SDS011;50211;52.768;12.124;2022-10-31T02:12:02;5.00;;;3.50;;
64011;SDS011;50211;52.768;12.124;2022-10-31T02:14:29;3.87;;;3.40;;
64011;SDS011;50211;52.768;12.124;2022-10-31T02:16:56;6.47;;;3.83;;
64011;SDS011;50211;52.768;12.124;2022-10-31T02:19:27;6.37;;;3.00;;
64011;SDS011;50211;52.768;12.124;2022-10-31T02:22:02;4.75;;;2.72;;
64011;SDS011;50211;52.768;12.124;2022-10-31T02:24:43;3.10;;;2.70;;
64011;SDS011;50211;52.768;12.124;2022-10-31T02:30:17;2.53;;;2.33;;
64011;SDS011;50211;52.768;12.124;2022-10-31T02:32:59;3.33;;;2.87;;
64011;SDS011;50211;52.768;12.124;2022-10-31T02:38:04;2.93;;;2.53;;
64011;SDS011;50211;52.768;12.124;2022-10-31T02:41:06;2.87;;;2.57;;
64011;SDS011;50211;52.768;12.124;2022-10-31T02:43:47;5.13;;;2.90;;
64011;SDS011;50211;52.768;12.124;2022-10-31T02:46:34;2.97;;;2.70;;
64011;SDS011;50211;52.768;12.124;2022-10-31T02:49:16;3.58;;;3.10;;
64011;SDS011;50211;52.768;12.124;2022-10-31T02:51:49;6.87;;;3.00;;
64011;SDS011;50211;52.768;12.124;2022-10-31T02:54:22;3.70;;;2.77;;
64011;SDS011;50211;52.768;12.124;2022-10-31T02:56:50;3.83;;;3.13;;
64011;SDS011;50211;52.768;12.124;2022-10-31T02:59:21;3.67;;;2.93;;
64011;SDS011;50211;52.768;12.124;2022-10-31T03:01:56;3.53;;;3.00;;
64011;SDS011;50211;52.768;12.124;2022-10-31T03:04:51;6.47;;;3.50;;
64011;SDS011;50211;52.768;12.124;2022-10-31T03:10:20;8.97;;;3.80;;
64011;SDS011;50211;52.768;12.124;2022-10-31T03:13:10;7.82;;;4.25;;
64011;SDS011;50211;52.768;12.124;2022-10-31T03:15:49;7.30;;;3.20;;
64011;SDS011;50211;52.768;12.124;2022-10-31T03:18:21;9.97;;;4.40;;
64011;SDS011;50211;52.768;12.124;2022-10-31T03:21:04;5.40;;;3.40;;
64011;SDS011;50211;52.768;12.124;2022-10-31T03:23:37;13.77;;;5.77;;
64011;SDS011;50211;52.768;12.124;2022-10-31T03:26:05;12.57;;;6.47;;
64011;SDS011;50211;52.768;12.124;2022-10-31T03:28:36;23.70;;;7.07;;
64011;SDS011;50211;52.768;12.124;2022-10-31T03:31:08;21.27;;;7.45;;
64011;SDS011;50211;52.768;12.124;2022-10-31T03:33:37;21.85;;;8.32;;
64011;SDS011;50211;52.768;12.124;2022-10-31T03:36:05;16.73;;;8.75;;
64011;SDS011;50211;52.768;12.124;2022-10-31T03:38:35;20.85;;;8.93;;
64011;SDS011;50211;52.768;12.124;2022-10-31T03:41:02;20.60;;;8.52;;
64011;SDS011;50211;52.768;12.124;2022-10-31T03:43:32;15.27;;;7.97;;
64011;SDS011;50211;52.768;12.124;2022-10-31T03:46:02;21.95;;;9.23;;
64011;SDS011;50211;52.768;12.124;2022-10-31T03:48:29;15.02;;;8.65;;
64011;SDS011;50211;52.768;12.124;2022-10-31T03:51:04;16.40;;;8.98;;
64011;SDS011;50211;52.768;12.124;2022-10-31T03:53:50;14.88;;;7.90;;
64011;SDS011;50211;52.768;12.124;2022-10-31T03:56:32;17.60;;;8.27;;
64011;SDS011;50211;52.768;12.124;2022-10-31T03:59:05;17.90;;;9.23;;
64011;SDS011;50211;52.768;12.124;2022-10-31T04:01:32;21.05;;;9.40;;
64011;SDS011;50211;52.768;12.124;2022-10-31T04:04:02;24.52;;;10.13;;
64011;SDS011;50211;52.768;12.124;2022-10-31T04:06:28;21.42;;;9.40;;
64011;SDS011;50211;52.768;12.124;2022-10-31T04:08:57;27.58;;;11.40;;
64011;SDS011;50211;52.768;12.124;2022-10-31T04:11:29;19.92;;;9.35;;
64011;SDS011;50211;52.768;12.124;2022-10-31T04:13:57;24.35;;;9.95;;
64011;SDS011;50211;52.768;12.124;2022-10-31T04:16:26;16.63;;;9.57;;
64011;SDS011;50211;52.768;12.124;2022-10-31T04:18:52;20.90;;;10.25;;
64011;SDS011;50211;52.768;12.124;2022-10-31T04:21:17;22.88;;;10.48;;
64011;SDS011;50211;52.768;12.124;2022-10-31T04:23:43;31.58;;;11.60;;
64011;SDS011;50211;52.768;12.124;2022-10-31T04:26:11;19.65;;;10.45;;
64011;SDS011;50211;52.768;12.124;2022-10-31T04:28:37;18.48;;;10.60;;
64011;SDS011;50211;52.768;12.124;2022-10-31T04:31:03;19.23;;;10.30;;
64011;SDS011;50211;52.768;12.124;2022-10-31T04:33:29;20.13;;;11.50;;
64011;SDS011;50211;52.768;12.124;2022-10-31T04:35:54;20.13;;;10.05;;
64011;SDS011;50211;52.768;12.124;2022-10-31T04:38:20;18.25;;;9.57;;
64011;SDS011;50211;52.768;12.124;2022-10-31T04:40:45;20.95;;;10.10;;
64011;SDS011;50211;52.768;12.124;2022-10-31T04:43:11;21.80;;;11.02;;
64011;SDS011;50211;52.768;12.124;2022-10-31T04:45:36;21.13;;;11.80;;
64011;SDS011;50211;52.768;12.124;2022-10-31T04:48:02;19.90;;;10.25;;
64011;SDS011;50211;52.768;12.124;2022-10-31T04:50:28;21.40;;;10.27;;
64011;SDS011;50211;52.768;12.124;2022-10-31T04:52:54;20.80;;;9.20;;
64011;SDS011;50211;52.768;12.124;2022-10-31T04:55:19;21.45;;;10.32;;
64011;SDS011;50211;52.768;12.124;2022-10-31T04:57:46;20.38;;;10.55;;
64011;SDS011;50211;52.768;12.124;2022-10-31T05:00:14;23.05;;;11.38;;
64011;SDS011;50211;52.768;12.124;2022-10-31T05:02:47;23.95;;;12.27;;
64011;SDS011;50211;52.768;12.124;2022-10-31T05:05:14;27.13;;;13.30;;
64011;SDS011;50211;52.768;12.124;2022-10-31T05:07:41;27.63;;;10.98;;
64011;SDS011;50211;52.768;12.124;2022-10-31T05:10:09;27.77;;;13.02;;
64011;SDS011;50211;52.768;12.124;2022-10-31T05:12:35;33.40;;;12.50;;
64011;SDS011;50211;52.768;12.124;2022-10-31T05:15:01;25.05;;;12.63;;
64011;SDS011;50211;52.768;12.124;2022-10-31T05:17:27;25.13;;;12.93;;
64011;SDS011;50211;52.768;12.124;2022-10-31T05:19:52;30.33;;;13.05;;
64011;SDS011;50211;52.768;12.124;2022-10-31T05:22:18;28.77;;;12.82;;
64011;SDS011;50211;52.768;12.124;2022-10-31T05:24:43;29.60;;;13.77;;
64011;SDS011;50211;52.768;12.124;2022-10-31T05:27:08;29.50;;;15.02;;
64011;SDS011;50211;52.768;12.124;2022-10-31T05:29:34;32.55;;;16.25;;
64011;SDS011;50211;52.768;12.124;2022-10-31T05:31:59;31.35;;;14.48;;
64011;SDS011;50211;52.768;12.124;2022-10-31T05:34:25;33.17;;;15.70;;
64011;SDS011;50211;52.768;12.124;2022-10-31T05:36:50;42.58;;;17.15;;
64011;SDS011;50211;52.768;12.124;2022-10-31T05:39:16;40.13;;;16.85;;
64011;SDS011;50211;52.768;12.124;2022-10-31T05:41:41;39.50;;;17.02;;
64011;SDS011;50211;52.768;12.124;2022-10-31T05:44:07;54.30;;;18.88;;
64011;SDS011;50211;52.768;12.124;2022-10-31T05:46:32;39.53;;;17.67;;
64011;SDS011;50211;52.768;12.124;2022-10-31T05:48:58;43.67;;;18.20;;
64011;SDS011;50211;52.768;12.124;2022-10-31T05:51:23;33.25;;;17.42;;
64011;SDS011;50211;52.768;12.124;2022-10-31T05:53:49;40.25;;;19.25;;
64011;SDS011;50211;52.768;12.124;2022-10-31T05:56:14;47.55;;;18.08;;
64011;SDS011;50211;52.768;12.124;2022-10-31T05:58:40;39.55;;;18.13;;
64011;SDS011;50211;52.768;12.124;2022-10-31T06:01:05;50.45;;;18.95;;
64011;SDS011;50211;52.768;12.124;2022-10-31T06:03:31;38.60;;;19.75;;
64011;SDS011;50211;52.768;12.124;2022-10-31T06:05:56;43.67;;;19.75;;
64011;SDS011;50211;52.768;12.124;2022-10-31T06:08:22;43.42;;;18.92;;
64011;SDS011;50211;52.768;12.124;2022-10-31T06:10:47;38.33;;;18.88;;
64011;SDS011;50211;52.768;12.124;2022-10-31T06:13:13;47.33;;;19.80;;
64011;SDS011;50211;52.768;12.124;2022-10-31T06:15:38;37.38;;;18.83;;
64011;SDS011;50211;52.768;12.124;2022-10-31T06:18:04;43.17;;;19.85;;
64011;SDS011;50211;52.768;12.124;2022-10-31T06:20:31;37.42;;;19.05;;
64011;SDS011;50211;52.768;12.124;2022-10-31T06:22:57;47.28;;;21.75;;
64011;SDS011;50211;52.768;12.124;2022-10-31T06:25:23;46.10;;;20.38;;
64011;SDS011;50211;52.768;12.124;2022-10-31T06:27:49;50.83;;;20.65;;
64011;SDS011;50211;52.768;12.124;2022-10-31T06:30:14;41.63;;;21.42;;
64011;SDS011;50211;52.768;12.124;2022-10-31T06:32:40;47.97;;;21.85;;
64011;SDS011;50211;52.768;12.124;2022-10-31T06:35:05;51.90;;;22.00;;
64011;SDS011;50211;52.768;12.124;2022-10-31T06:37:31;45.40;;;21.00;;
64011;SDS011;50211;52.768;12.124;2022-10-31T06:39:56;45.15;;;22.10;;
64011;SDS011;50211;52.768;12.124;2022-10-31T06:42:22;48.58;;;21.38;;
64011;SDS011;50211;52.768;12.124;2022-10-31T06:44:47;44.17;;;21.13;;
64011;SDS011;50211;52.768;12.124;2022-10-31T06:47:13;50.85;;;22.88;;
64011;SDS011;50211;52.768;12.124;2022-10-31T06:49:38;49.50;;;22.23;;
64011;SDS011;50211;52.768;12.124;2022-10-31T06:52:04;50.47;;;22.35;;
64011;SDS011;50211;52.768;12.124;2022-10-31T06:54:30;54.10;;;22.45;;
64011;SDS011;50211;52.768;12.124;2022-10-31T06:56:55;60.85;;;24.38;;
64011;SDS011;50211;52.768;12.124;2022-10-31T06:59:21;54.78;;;23.55;;
64011;SDS011;50211;52.768;12.124;2022-10-31T07:01:46;54.97;;;22.98;;
64011;SDS011;50211;52.768;12.124;2022-10-31T07:04:12;69.13;;;24.77;;
64011;SDS011;50211;52.768;12.124;2022-10-31T07:06:37;53.33;;;24.23;;
64011;SDS011;50211;52.768;12.124;2022-10-31T07:09:03;66.40;;;25.52;;
64011;SDS011;50211;52.768;12.124;2022-10-31T07:11:29;58.80;;;25.77;;
64011;SDS011;50211;52.768;12.124;2022-10-31T07:13:54;64.07;;;25.27;;
64011;SDS011;50211;52.768;12.124;2022-10-31T07:16:20;65.55;;;24.85;;
64011;SDS011;50211;52.768;12.124;2022-10-31T07:18:46;68.15;;;24.33;;
64011;SDS011;50211;52.768;12.124;2022-10-31T07:21:11;66.07;;;26.73;;
64011;SDS011;50211;52.768;12.124;2022-10-31T07:23:37;70.47;;;24.77;;
64011;SDS011;50211;52.768;12.124;2022-10-31T07:26:02;65.63;;;26.17;;
64011;SDS011;50211;52.768;12.124;2022-10-31T07:28:28;66.30;;;26.10;;
64011;SDS011;50211;52.768;12.124;2022-10-31T07:30:54;75.40;;;25.88;;
64011;SDS011;50211;52.768;12.124;2022-10-31T07:33:21;63.00;;;26.35;;
64011;SDS011;50211;52.768;12.124;2022-10-31T07:35:47;60.70;;;24.67;;
64011;SDS011;50211;52.768;12.124;2022-10-31T07:38:13;60.42;;;24.88;;
64011;SDS011;50211;52.768;12.124;2022-10-31T07:40:40;57.38;;;24.05;;
64011;SDS011;50211;52.768;12.124;2022-10-31T07:43:06;57.90;;;24.33;;
64011;SDS011;50211;52.768;12.124;2022-10-31T07:45:32;54.78;;;23.63;;
64011;SDS011;50211;52.768;12.124;2022-10-31T07:47:58;60.47;;;24.45;;
64011;SDS011;50211;52.768;12.124;2022-10-31T07:50:25;57.70;;;23.55;;
64011;SDS011;50211;52.768;12.124;2022-10-31T07:53:02;57.67;;;24.27;;
64011;SDS011;50211;52.768;12.124;2022-10-31T07:55:29;61.22;;;24.52;;
64011;SDS011;50211;52.768;12.124;2022-10-31T07:57:56;58.60;;;23.88;;
64011;SDS011;50211;52.768;12.124;2022-10-31T08:00:25;54.28;;;23.48;;
64011;SDS011;50211;52.768;12.124;2022-10-31T08:02:58;58.95;;;24.80;;
64011;SDS011;50211;52.768;12.124;2022-10-31T08:05:24;66.10;;;24.95;;
64011;SDS011;50211;52.768;12.124;2022-10-31T08:07:50;56.58;;;24.40;;
64011;SDS011;50211;52.768;12.124;2022-10-31T08:10:15;58.15;;;24.52;;
64011;SDS011;50211;52.768;12.124;2022-10-31T08:12:41;56.47;;;23.70;;
64011;SDS011;50211;52.768;12.124;2022-10-31T08:15:06;50.60;;;23.65;;
64011;SDS011;50211;52.768;12.124;2022-10-31T08:17:36;54.35;;;21.55;;
64011;SDS011;50211;52.768;12.124;2022-10-31T08:20:02;54.15;;;24.60;;
64011;SDS011;50211;52.768;12.124;2022-10-31T08:22:32;60.60;;;23.23;;
64011;SDS011;50211;52.768;12.124;2022-10-31T08:24:57;56.13;;;24.77;;
64011;SDS011;50211;52.768;12.124;2022-10-31T08:27:23;59.75;;;24.23;;
64011;SDS011;50211;52.768;12.124;2022-10-31T08:29:48;60.85;;;24.33;;
64011;SDS011;50211;52.768;12.124;2022-10-31T08:32:14;64.65;;;26.50;;
64011;SDS011;50211;52.768;12.124;2022-10-31T08:34:39;63.15;;;24.55;;
64011;SDS011;50211;52.768;12.124;2022-10-31T08:37:05;66.22;;;24.02;;
64011;SDS011;50211;52.768;12.124;2022-10-31T08:39:30;58.45;;;25.02;;
64011;SDS011;50211;52.768;12.124;2022-10-31T08:41:56;64.30;;;25.15;;
64011;SDS011;50211;52.768;12.124;2022-10-31T08:44:21;65.75;;;23.90;;
64011;SDS011;50211;52.768;12.124;2022-10-31T08:46:46;62.38;;;25.35;;
64011;SDS011;50211;52.768;12.124;2022-10-31T08:49:12;58.58;;;24.92;;
64011;SDS011;50211;52.768;12.124;2022-10-31T08:51:37;56.15;;;24.95;;
64011;SDS011;50211;52.768;12.124;2022-10-31T08:54:03;69.18;;;26.15;;
64011;SDS011;50211;52.768;12.124;2022-10-31T08:56:29;66.50;;;26.17;;
64011;SDS011;50211;52.768;12.124;2022-10-31T08:58:54;59.00;;;25.90;;
64011;SDS011;50211;52.768;12.124;2022-10-31T09:01:20;66.50;;;26.13;;
64011;SDS011;50211;52.768;12.124;2022-10-31T09:03:45;60.45;;;26.67;;
64011;SDS011;50211;52.768;12.124;2022-10-31T09:06:11;74.82;;;25.65;;
64011;SDS011;50211;52.768;12.124;2022-10-31T09:08:36;57.00;;;24.77;;
64011;SDS011;50211;52.768;12.124;2022-10-31T09:11:02;72.85;;;27.80;;
64011;SDS011;50211;52.768;12.124;2022-10-31T09:13:28;62.22;;;26.98;;
64011;SDS011;50211;52.768;12.124;2022-10-31T09:15:55;62.10;;;26.98;;
64011;SDS011;50211;52.768;12.124;2022-10-31T09:18:23;66.40;;;26.35;;
64011;SDS011;50211;52.768;12.124;2022-10-31T09:20:49;64.40;;;26.15;;
64011;SDS011;50211;52.768;12.124;2022-10-31T09:23:19;65.88;;;25.50;;
64011;SDS011;50211;52.768;12.124;2022-10-31T09:25:46;70.03;;;27.20;;
64011;SDS011;50211;52.768;12.124;2022-10-31T09:28:14;55.25;;;27.00;;
64011;SDS011;50211;52.768;12.124;2022-10-31T09:30:41;60.85;;;27.67;;
64011;SDS011;50211;52.768;12.124;2022-10-31T09:33:08;61.42;;;26.05;;
64011;SDS011;50211;52.768;12.124;2022-10-31T09:35:35;66.10;;;25.88;;
64011;SDS011;50211;52.768;12.124;2022-10-31T09:38:15;71.68;;;27.75;;
64011;SDS011;50211;52.768;12.124;2022-10-31T09:43:51;72.50;;;26.95;;
64011;SDS011;50211;52.768;12.124;2022-10-31T09:46:47;73.20;;;30.98;;
64011;SDS011;50211;52.768;12.124;2022-10-31T09:49:57;68.13;;;27.65;;
64011;SDS011;50211;52.768;12.124;2022-10-31T09:52:51;72.30;;;28.67;;
64011;SDS011;50211;52.768;12.124;2022-10-31T09:55:27;63.92;;;28.35;;
64011;SDS011;50211;52.768;12.124;2022-10-31T09:58:03;63.17;;;28.45;;
64011;SDS011;50211;52.768;12.124;2022-10-31T10:00:29;60.78;;;27.77;;
64011;SDS011;50211;52.768;12.124;2022-10-31T10:03:04;63.72;;;26.25;;
64011;SDS011;50211;52.768;12.124;2022-10-31T10:08:25;58.28;;;25.13;;
64011;SDS011;50211;52.768;12.124;2022-10-31T10:10:56;60.33;;;27.40;;
64011;SDS011;50211;52.768;12.124;2022-10-31T10:13:47;63.30;;;27.95;;
64011;SDS011;50211;52.768;12.124;2022-10-31T10:16:29;63.10;;;26.50;;
64011;SDS011;50211;52.768;12.124;2022-10-31T10:19:14;62.25;;;28.75;;
64011;SDS011;50211;52.768;12.124;2022-10-31T10:22:16;62.15;;;25.90;;
64011;SDS011;50211;52.768;12.124;2022-10-31T10:24:58;70.85;;;27.23;;
64011;SDS011;50211;52.768;12.124;2022-10-31T10:27:38;62.75;;;26.10;;
64011;SDS011;50211;52.768;12.124;2022-10-31T10:30:18;60.20;;;25.15;;
64011;SDS011;50211;52.768;12.124;2022-10-31T10:32:58;65.75;;;26.83;;
64011;SDS011;50211;52.768;12.124;2022-10-31T10:35:29;76.00;;;28.90;;
64011;SDS011;50211;52.768;12.124;2022-10-31T10:38:02;66.00;;;26.85;;
64011;SDS011;50211;52.768;12.124;2022-10-31T10:40:37;71.88;;;27.85;;
64011;SDS011;50211;52.768;12.124;2022-10-31T10:43:17;77.63;;;32.47;;
64011;SDS011;50211;52.768;12.124;2022-10-31T10:45:50;61.88;;;28.42;;
64011;SDS011;50211;52.768;12.124;2022-10-31T10:51:58;61.25;;;26.27;;
64011;SDS011;50211;52.768;12.124;2022-10-31T10:54:46;52.97;;;24.17;;
64011;SDS011;50211;52.768;12.124;2022-10-31T11:00:25;58.83;;;27.20;;
64011;SDS011;50211;52.768;12.124;2022-10-31T11:03:17;58.10;;;26.25;;
64011;SDS011;50211;52.768;12.124;2022-10-31T11:05:47;55.08;;;23.75;;
64011;SDS011;50211;52.768;12.124;2022-10-31T11:08:31;70.18;;;25.17;;
64011;SDS011;50211;52.768;12.124;2022-10-31T11:10:59;60.15;;;24.63;;
64011;SDS011;50211;52.768;12.124;2022-10-31T11:13:29;57.92;;;24.20;;
64011;SDS011;50211;52.768;12.124;2022-10-31T11:18:25;58.78;;;26.55;;
64011;SDS011;50211;52.768;12.124;2022-10-31T11:20:56;55.40;;;24.17;;
64011;SDS011;50211;52.768;12.124;2022-10-31T11:23:24;55.95;;;23.80;;
64011;SDS011;50211;52.768;12.124;2022-10-31T11:25:52;59.47;;;24.38;;
64011;SDS011;50211;52.768;12.124;2022-10-31T11:28:23;49.47;;;22.35;;
64011;SDS011;50211;52.768;12.124;2022-10-31T11:30:51;64.00;;;25.15;;
64011;SDS011;50211;52.768;12.124;2022-10-31T11:36:15;59.50;;;24.48;;
64011;SDS011;50211;52.768;12.124;2022-10-31T11:38:46;58.60;;;25.23;;
64011;SDS011;50211;52.768;12.124;2022-10-31T11:41:16;51.55;;;21.83;;
64011;SDS011;50211;52.768;12.124;2022-10-31T11:43:50;47.05;;;21.25;;
64011;SDS011;50211;52.768;12.124;2022-10-31T11:46:20;50.92;;;23.20;;
64011;SDS011;50211;52.768;12.124;2022-10-31T11:48:48;52.35;;;22.55;;
64011;SDS011;50211;52.768;12.124;2022-10-31T11:51:20;48.05;;;22.08;;
64011;SDS011;50211;52.768;12.124;2022-10-31T11:53:51;51.92;;;22.33;;
64011;SDS011;50211;52.768;12.124;2022-10-31T11:56:19;47.75;;;20.38;;
64011;SDS011;50211;52.768;12.124;2022-10-31T11:59:50;49.97;;;22.67;;
64011;SDS011;50211;52.768;12.124;2022-10-31T12:01:46;60.45;;;23.77;;
64011;SDS011;50211;52.768;12.124;2022-10-31T12:04:14;53.60;;;23.23;;
64011;SDS011;50211;52.768;12.124;2022-10-31T12:06:42;65.20;;;23.70;;
64011;SDS011;50211;52.768;12.124;2022-10-31T12:14:34;60.47;;;23.85;;
64011;SDS011;50211;52.768;12.124;2022-10-31T12:17:16;67.00;;;26.13;;
64011;SDS011;50211;52.768;12.124;2022-10-31T12:22:42;51.08;;;23.13;;
64011;SDS011;50211;52.768;12.124;2022-10-31T12:28:08;59.83;;;23.67;;
64011;SDS011;50211;52.768;12.124;2022-10-31T12:30:58;50.97;;;21.98;;
64011;SDS011;50211;52.768;12.124;2022-10-31T12:33:40;46.22;;;21.33;;
64011;SDS011;50211;52.768;12.124;2022-10-31T12:39:19;49.38;;;21.77;;
64011;SDS011;50211;52.768;12.124;2022-10-31T12:41:51;54.88;;;21.73;;
64011;SDS011;50211;52.768;12.124;2022-10-31T12:47:46;52.75;;;22.23;;
64011;SDS011;50211;52.768;12.124;2022-10-31T12:59:07;56.80;;;22.50;;
64011;SDS011;50211;52.768;12.124;2022-10-31T13:01:42;56.30;;;21.92;;
64011;SDS011;50211;52.768;12.124;2022-10-31T13:04:15;45.58;;;21.92;;
64011;SDS011;50211;52.768;12.124;2022-10-31T13:07:02;62.90;;;23.35;;
64011;SDS011;50211;52.768;12.124;2022-10-31T13:09:34;57.10;;;24.33;;
64011;SDS011;50211;52.768;12.124;2022-10-31T13:12:10;59.95;;;22.95;;
64011;SDS011;50211;52.768;12.124;2022-10-31T13:14:42;53.08;;;22.42;;
64011;SDS011;50211;52.768;12.124;2022-10-31T13:17:31;56.55;;;21.80;;
64011;SDS011;50211;52.768;12.124;2022-10-31T13:20:05;65.65;;;23.95;;
64011;SDS011;50211;52.768;12.124;2022-10-31T13:22:39;56.10;;;22.75;;
64011;SDS011;50211;52.768;12.124;2022-10-31T13:25:10;44.97;;;20.35;;
64011;SDS011;50211;52.768;12.124;2022-10-31T13:27:47;49.40;;;20.52;;
64011;SDS011;50211;52.768;12.124;2022-10-31T13:30:20;55.13;;;26.80;;
64011;SDS011;50211;52.768;12.124;2022-10-31T13:32:52;45.03;;;20.63;;
64011;SDS011;50211;52.768;12.124;2022-10-31T13:41:02;54.25;;;23.52;;
64011;SDS011;50211;52.768;12.124;2022-10-31T13:43:46;55.20;;;21.20;;
64011;SDS011;50211;52.768;12.124;2022-10-31T13:46:37;46.15;;;20.98;;
64011;SDS011;50211;52.768;12.124;2022-10-31T13:49:04;46.08;;;21.23;;
64011;SDS011;50211;52.768;12.124;2022-10-31T13:51:48;40.22;;;17.65;;
64011;SDS011;50211;52.768;12.124;2022-10-31T13:54:21;37.17;;;17.30;;
64011;SDS011;50211;52.768;12.124;2022-10-31T13:56:49;35.55;;;16.13;;
64011;SDS011;50211;52.768;12.124;2022-10-31T13:59:17;37.83;;;15.82;;
64011;SDS011;50211;52.768;12.124;2022-10-31T14:01:55;33.03;;;15.25;;
64011;SDS011;50211;52.768;12.124;2022-10-31T14:07:05;39.28;;;16.55;;
64011;SDS011;50211;52.768;12.124;2022-10-31T14:09:36;35.72;;;15.52;;
64011;SDS011;50211;52.768;12.124;2022-10-31T14:12:12;42.10;;;16.17;;
64011;SDS011;50211;52.768;12.124;2022-10-31T14:14:49;38.28;;;17.60;;
64011;SDS011;50211;52.768;12.124;2022-10-31T14:17:18;45.50;;;18.20;;
64011;SDS011;50211;52.768;12.124;2022-10-31T14:20:21;56.95;;;20.05;;
64011;SDS011;50211;52.768;12.124;2022-10-31T14:22:50;41.70;;;20.15;;
64011;SDS011;50211;52.768;12.124;2022-10-31T14:27:55;60.83;;;18.45;;
64011;SDS011;50211;52.768;12.124;2022-10-31T14:30:23;41.15;;;19.13;;
64011;SDS011;50211;52.768;12.124;2022-10-31T14:33:00;52.38;;;19.25;;
64011;SDS011;50211;52.768;12.124;2022-10-31T14:35:37;46.45;;;17.48;;
64011;SDS011;50211;52.768;12.124;2022-10-31T14:38:26;48.25;;;21.80;;
64011;SDS011;50211;52.768;12.124;2022-10-31T14:41:43;48.30;;;23.50;;
64011;SDS011;50211;52.768;12.124;2022-10-31T14:47:02;48.30;;;18.52;;
64011;SDS011;50211;52.768;12.124;2022-10-31T14:52:13;56.97;;;19.00;;
64011;SDS011;50211;52.768;12.124;2022-10-31T14:54:43;53.40;;;17.23;;
64011;SDS011;50211;52.768;12.124;2022-10-31T14:57:20;42.50;;;18.30;;
64011;SDS011;50211;52.768;12.124;2022-10-31T14:59:50;43.03;;;17.02;;
64011;SDS011;50211;52.768;12.124;2022-10-31T15:02:26;51.10;;;17.98;;
64011;SDS011;50211;52.768;12.124;2022-10-31T15:04:57;52.72;;;17.30;;
64011;SDS011;50211;52.768;12.124;2022-10-31T15:07:24;43.53;;;17.85;;
64011;SDS011;50211;52.768;12.124;2022-10-31T15:09:54;59.38;;;19.35;;
64011;SDS011;50211;52.768;12.124;2022-10-31T15:12:35;50.10;;;16.65;;
64011;SDS011;50211;52.768;12.124;2022-10-31T15:15:13;41.95;;;16.05;;
64011;SDS011;50211;52.768;12.124;2022-10-31T15:17:48;39.85;;;17.25;;
64011;SDS011;50211;52.768;12.124;2022-10-31T15:20:18;56.10;;;18.17;;
64011;SDS011;50211;52.768;12.124;2022-10-31T15:22:45;49.03;;;18.42;;
64011;SDS011;50211;52.768;12.124;2022-10-31T15:25:21;60.97;;;24.92;;
64011;SDS011;50211;52.768;12.124;2022-10-31T15:27:48;53.00;;;24.98;;
64011;SDS011;50211;52.768;12.124;2022-10-31T15:30:16;47.35;;;26.85;;
64011;SDS011;50211;52.768;12.124;2022-10-31T15:32:49;39.78;;;18.27;;
64011;SDS011;50211;52.768;12.124;2022-10-31T15:35:25;44.67;;;18.80;;
64011;SDS011;50211;52.768;12.124;2022-10-31T15:37:52;60.22;;;20.38;;
64011;SDS011;50211;52.768;12.124;2022-10-31T15:40:19;64.32;;;24.38;;
64011;SDS011;50211;52.768;12.124;2022-10-31T15:42:50;76.38;;;32.55;;
64011;SDS011;50211;52.768;12.124;2022-10-31T15:45:25;58.25;;;19.33;;
64011;SDS011;50211;52.768;12.124;2022-10-31T15:53:02;57.72;;;18.45;;